Timeline UpdatesTrip UpdatesNews PostsPvt Posts♥♥Travel TipsAdmin PostsConv PostsFollowed PostsChat RequestsBlog PostsPNR Posts

Disclaimer
Search
 
 
Sat Nov 1, 2014 13:54:45 ISTHomeTrainsΣChainsAtlasPNRForumGalleryNewsFAQTripsMembersLoginFeedback
No Recent News for this Train
Other Trains in the News **new
Latest...
⇐ Return Journey: Train# 14236

14235/Varanasi Bareilly Express

Time-Table HAS CHANGED.
Oct 27 (12:47AM)
Change Departure Station:
Change Arrival Station:
Post a Train Travel TipPost a Train Travel Tip **new
Post a Comment/Question/Picture/VideoPost a Comment/Question/Picture/Video
Pantry/Catering
✕ NO Pantry Car
✕ NO Catering
RSA - Rake Sharing
Rake/Coach Composition
3A-1, FC-1, SL-5, SLR-2, GS-5=14 coaches; Entry# 185302 -- Author: akg
Loco
LKO PRABAL WDM 3A
News    PNR    Forum    Time-Table    Availability    Fare Chart    Map    Arr/Dep History    Trips    Gallery    ΣChains    X/O    Timeline    
Travel Time: 0h 46m    1 halts    Distance: 20 km    Avg Speed: 26 km/hr
Type: Mail/Express
Zone: NR/Northern
Departs @ 13:19 (Avg 47m late)
Platform# ???
SMTWTFS
Pitambarpur/PMR 
Arrives @ 14:05 (Avg 34m late)
Platform# 3
SMTWTFS
Bareilly Junction/BE 

1 halts. 2 intermediate Stations between Pitambarpur and Bareilly Junction

Show ALL intermediate Stations  Show Old Time-Table

#TrkCodeStation NameX/OArrivesAvgDepartsAvgHaltPFDay#KmSpeedElevZoneAddress
1/==/BSBVaranasi Junction (9)  -23:45 23:40+191-538.86682mNRVaranasi 221002, Uttar Pradesh
2/==/BTPBabatpur (2)  00:02 23:57+1800:04 23:59+172m--1-520.26184mNRSatomahua-Mangari Rd, Uttar Pradesh
3/==/ZBDZafarabad Junction (4)  00:32 00:31+2500:34 00:33+252m--2-487.64383mNRNational Highway 56, Uttar Pradesh
4|--|JNUJaunpur Junction (5)  00:43 00:42+1900:45 00:44+202m12-481.17283mNRJaunpur, Uttar Pradesh
5|--|KSKheta Sarai (1)  01:04 01:03+2501:06 01:05+272m--2-458.44988mNRKheta Sarai, Uttar Pradesh
6|--|SHGShahganj Junction (4)X  01:19 01:18+2501:21 01:20+272m12-447.85890mNRShahganj, Uttar Pradesh
7|--|MLPRMalipur (2)X  01:46+3101:48+322m--2-422.85792mNRMalipur, Uttar Pradesh
8|--|ABPAkbarpur Junction (2)  02:08+2502:10+252m--2-403.78392mNRAkbarpur, Uttar Pradesh
9|--|GGJGoshainGanj (3)  02:26+4002:28+402m--2-381.57098mNRGoshainganj, Uttar Pradesh
10|--|AYAyodhya Junction (3)X  02:55+3802:57+372m--2-349.82098mNRAyodhya, Uttar Pradesh
11|--|FDFaizabad Junction (5)  03:17+2803:22+295m--2-343.174104mNRFaizabad, Uttar Pradesh
12|--|RDLRudauli (2)  03:53+1:0303:55+1:042m--2-305.073112mNRRudauli, Uttar Pradesh
13|--|DYDDaryabadX  04:13 04:14+1:1204:15 04:16+1:112m--2-281.824116mNRFaizabad Rd, Uttar Pradesh
14|--|BBKBarabanki Junction (4)X  05:53+1605:55+182m12-243.851 NRPin-225001, Uttar Pradesh
15/==/SFHSafedabad (3)  06:04+2306:06+222m--2-236.240121mNRBarabanki, Uttar Pradesh
16/==/JRRJugaur (1)X  06:11-06:13-2m12-232.855123mNRCanal Rd, Uttar Pradesh
17/--/MLMalhaur (3)X  06:19+2106:21+202m--2-227.421120mNRLucknow, Uttar Pradesh
18/==/LKOLucknow Charbagh NR (9)  07:00 06:55+907:10+910 15m62-215.435 NR226004, Uttar Pradesh
19/==/KKJKakori (3)X  07:35+2807:37+342m--2-200.872129mNRSH 25, Uttar Pradesh
20/==/MLDMalihabadX  07:45+3907:47+562m--2-191.257130mNRMalihabad, Uttar Pradesh
21/==/DILDilawarnagarXO  07:53+5807:55+582m--2-185.565133mNRSH 25, Uttar Pradesh
22/==/RBDRahimabadX  08:04 08:02+5908:06 08:04+1:052m--2-177.966132mNRSH 25, Uttar Pradesh
23/==/SANSandila (3)X  08:15 08:14+1:0608:17 08:16+1:062m--2-166.945132mNRSandila, Uttar Pradesh
24/==/UTAUmar TaliX  08:26 08:23+1:0608:28 08:25+1:052m--2-161.664135mNRHardoi, Uttar Pradesh
25/==/DLQDalelnagarX  08:34 08:31+1:0808:36 08:33+1:122m--2-155.265136mNRSH 25, Uttar Pradesh
26/==/BLMBalamau Junction (4)X  08:43 08:41+1:1608:45 08:43+1:172m--2-146.558139mNRBalamau, Uttar Pradesh
27/==/BGHBaghauli  08:54 08:52+1:1808:56 08:54+1:182m--2-137.852141mNRsharda nehar, Uttar Pradesh
28/==/MSTMasit  09:03 09:02+1:2109:05 09:04+1:292m--2-130.950141mNRSH 25, Uttar Pradesh
29/==/KARKarnaX  09:13+1:2809:15+1:322m--2-123.449143mNRHardoi, Uttar Pradesh
30/==/HRIHardoi (5)XO  09:25 09:27+5409:27 09:29+542m12-113.539146mNRHardoi, Uttar Pradesh
31/==/KUFKaurhaX  09:40 09:42+1:3009:42 09:44+1:302m--2-105.159148mNRSH 25, Uttar Pradesh
32/==/BEGBehtagokulX  09:51 09:53+1:2909:53 09:55+1:292m--2-96.248152mNRBehtagokul, Uttar Pradesh
33/==/TDPTodarpur  10:00 10:03+1:3010:02 10:05+1:342m--2-89.864147mNRSH 25, Uttar Pradesh
34/==/AJIAnjhi ShahabadX  10:10 10:13+1:1810:12 10:15+1:182m--2-81.347148mNRAnjhi Shahabad, Uttar Pradesh
35/==/AIGAlgawanX  10:19 10:23+1:1810:21 10:25+1:182m--2-75.064152mNRAlgawan, Uttar Pradesh
36/==/KHKahiliyaXO  10:29 10:33+1:1910:31 10:35+1:362m--2-66.57152mNRSH 25, Uttar Pradesh
37/==/ROZARoza Junction (4)  10:46 11:45+4210:48 11:47+532m--2-57.924156mNRShahjahanpur, Uttar Pradesh
38/==/SPNShahjahanpur Junction (3)X  12:05+2012:10+205m32-50.656156mNRShahjahanpur, Uttar Pradesh
39/==/BTRABanthraX  12:18 12:19+5512:20 12:21+562m--2-42.258154mNRNH 24, Uttar Pradesh
40/==/TLHTilhar  12:29 12:31+5712:31 12:33+572m--2-32.558163mNRTilhar, Uttar Pradesh
41/==/MKMiranpur KatraO  12:40 12:43+5612:42 12:45+562m--2-22.748162mNRShahjahanpur, Uttar Pradesh
42/==/BLPUBilpur  12:50 12:54+5712:52 12:56+1:002m--2-15.647161mNRFatehganj, Uttar Pradesh
43/==/TSATisuaX  13:00 13:05+1:0013:02 13:07+1:002m--2-8.551165mNRNational Highway 24, Uttar Pradesh
44/==/PMRPitambarpur (3)»X  13:11 13:17+4713:13 13:19+472m--20.057171mNRPitambarpur, Uttar Pradesh
45/==/RYSRasuriya  13:22 13:29+5713:24 13:31+572m--29.418174mNRNH 24, Uttar Pradesh
46/==/BEBareilly Junction (4)•  14:05+34-3219.9-174mNRBareilly, Uttar Pradesh
Scroll to Top
Scroll to Bottom